Terminal Aerodrome Forecast
Issued by NWS Sioux Falls, SD

Home | Current Version | Previous Version | Graphics & Text | Print | Product List | Glossary On
Versions: 1 2 3 4 5 6 7 8 9 10 11 12 13 14 15
000
FTUS43 KFSD 271736
TAFHON
TAF
KHON 271736Z 2718/2818 24008KT P6SM SCT050
     FM272300 21007KT P6SM BKN120
     FM280300 34006KT P6SM BKN090
     FM280700 34006KT P6SM SKC
     FM281500 35013KT P6SM SCT050=

USA.gov is the U.S. government's official web portal to all federal, state and local government web resources and services.